createdAt,value
2018-09-08T00:01:40.732Z,13.57
2018-09-08T00:04:09.531Z,13.00
2018-09-08T00:06:38.351Z,12.17
2018-09-08T00:09:08.988Z,11.90
2018-09-08T00:11:38.091Z,11.37
2018-09-08T00:14:07.018Z,10.97
2018-09-08T00:16:41.492Z,11.90
2018-09-08T00:19:15.853Z,11.90
2018-09-08T00:21:50.462Z,10.87
2018-09-08T00:24:24.701Z,11.40
2018-09-08T00:26:52.971Z,11.07
2018-09-08T00:29:25.984Z,12.70
2018-09-08T00:31:55.706Z,11.10
2018-09-08T00:34:24.343Z,11.10
2018-09-08T00:36:52.966Z,11.07
2018-09-08T00:39:21.698Z,10.53
2018-09-08T00:41:50.471Z,10.47
2018-09-08T00:44:19.631Z,10.70
2018-09-08T00:46:48.553Z,10.97
2018-09-08T00:49:17.503Z,11.90
2018-09-08T00:51:46.371Z,12.00
2018-09-08T00:54:15.578Z,12.07
2018-09-08T00:56:44.522Z,12.73
2018-09-08T00:59:13.328Z,13.77
2018-09-08T01:01:42.092Z,12.90
2018-09-08T01:04:12.878Z,13.63
2018-09-08T01:06:42.760Z,14.33
2018-09-08T01:09:11.716Z,13.50
2018-09-08T01:11:40.503Z,12.43
2018-09-08T01:14:09.223Z,12.80
2018-09-08T01:16:37.980Z,13.00
2018-09-08T01:19:06.891Z,12.60
2018-09-08T01:21:35.805Z,12.80
2018-09-08T01:24:04.637Z,13.00
2018-09-08T01:26:33.513Z,13.57
2018-09-08T01:29:02.298Z,13.27
2018-09-08T01:31:31.080Z,13.57
2018-09-08T01:33:59.832Z,14.33
2018-09-08T01:36:28.556Z,13.23
2018-09-08T01:38:57.211Z,14.70
2018-09-08T01:41:25.908Z,14.23
2018-09-08T01:43:54.563Z,14.60
2018-09-08T01:46:23.257Z,13.27
2018-09-08T01:48:51.878Z,13.33
2018-09-08T01:51:20.538Z,13.93
2018-09-08T01:53:49.183Z,12.73
2018-09-08T01:56:17.882Z,12.80
2018-09-08T01:58:46.651Z,13.70
2018-09-08T02:01:15.443Z,14.07
2018-09-08T02:03:44.351Z,12.97
2018-09-08T02:06:13.164Z,13.60
2018-09-08T02:08:42.013Z,12.53
2018-09-08T02:11:10.819Z,12.33
2018-09-08T02:13:39.530Z,12.43
2018-09-08T02:16:08.430Z,12.83
2018-09-08T02:18:37.146Z,12.20
2018-09-08T02:21:05.986Z,11.97
2018-09-08T02:23:34.767Z,11.30
2018-09-08T02:26:03.631Z,12.00
2018-09-08T02:28:33.090Z,11.70
2018-09-08T02:31:01.883Z,11.90
2018-09-08T02:33:31.433Z,13.13
2018-09-08T02:36:00.175Z,12.50
2018-09-08T02:38:28.803Z,11.73
2018-09-08T02:40:57.439Z,11.07
2018-09-08T02:43:26.035Z,11.53
2018-09-08T02:45:54.636Z,13.07
2018-09-08T02:48:23.264Z,11.57
2018-09-08T02:50:50.051Z,12.30
2018-09-08T02:53:16.839Z,11.97
2018-09-08T02:55:43.666Z,12.50
2018-09-08T02:58:10.459Z,12.53
2018-09-08T03:00:37.259Z,12.10
2018-09-08T03:03:04.039Z,11.37
2018-09-08T03:05:30.851Z,10.77
2018-09-08T03:07:57.626Z,11.63
2018-09-08T03:10:24.444Z,12.90
2018-09-08T03:12:51.283Z,12.27
2018-09-08T03:15:18.171Z,12.00
2018-09-08T03:17:44.964Z,13.70
2018-09-08T03:20:11.836Z,11.80
2018-09-08T03:22:38.699Z,12.37
2018-09-08T03:25:05.591Z,12.43
2018-09-08T03:27:32.448Z,21.53
2018-09-08T03:29:59.332Z,49.73
2018-09-08T03:32:26.188Z,30.33
2018-09-08T03:34:53.071Z,18.57
2018-09-08T03:37:19.932Z,34.53
2018-09-08T03:39:46.826Z,33.53
2018-09-08T03:42:13.733Z,23.53
2018-09-08T03:44:40.558Z,32.70
2018-09-08T03:47:07.365Z,26.43
2018-09-08T03:49:34.231Z,22.73
2018-09-08T03:52:01.103Z,20.60
2018-09-08T03:54:27.962Z,28.27
2018-09-08T03:56:54.865Z,28.20
2018-09-08T03:59:21.716Z,19.70
2018-09-08T04:01:48.543Z,17.50
2018-09-08T04:04:17.191Z,17.60
2018-09-08T04:06:45.868Z,16.93
2018-09-08T04:09:14.551Z,23.63
2018-09-08T04:11:43.248Z,19.03
2018-09-08T04:14:11.929Z,16.70
2018-09-08T04:16:40.708Z,16.60
2018-09-08T04:19:09.368Z,14.70
2018-09-08T04:21:38.068Z,18.60
2018-09-08T04:24:06.834Z,13.30
2018-09-08T04:26:35.568Z,13.83
2018-09-08T04:29:04.303Z,9.93
2018-09-08T04:31:33.028Z,9.30
2018-09-08T04:34:01.678Z,10.47
2018-09-08T04:36:30.401Z,10.77
2018-09-08T04:38:59.202Z,16.00
2018-09-08T04:41:28.099Z,26.10
2018-09-08T04:43:57.094Z,24.37
2018-09-08T04:46:26.258Z,19.13
2018-09-08T04:48:55.036Z,18.53
2018-09-08T04:51:23.855Z,24.30
2018-09-08T04:53:52.545Z,17.93
2018-09-08T04:56:21.256Z,26.70
2018-09-08T04:58:50.015Z,31.63
2018-09-08T05:01:18.650Z,27.87
2018-09-08T05:03:47.440Z,17.97
2018-09-08T05:06:16.139Z,20.77
2018-09-08T05:08:44.808Z,17.93
2018-09-08T05:11:14.048Z,15.67
2018-09-08T05:13:42.814Z,13.67
2018-09-08T05:16:11.667Z,8.97
2018-09-08T05:18:40.373Z,7.67
2018-09-08T05:21:09.111Z,8.13
2018-09-08T05:23:37.944Z,10.67
2018-09-08T05:26:06.798Z,11.27
2018-09-08T05:28:35.632Z,11.43
2018-09-08T05:31:04.483Z,13.33
2018-09-08T05:33:33.164Z,12.73
2018-09-08T05:36:01.819Z,43.53
2018-09-08T05:38:31.501Z,42.83
2018-09-08T05:41:00.217Z,36.17
2018-09-08T05:43:28.895Z,12.80
2018-09-08T05:45:57.581Z,12.80
2018-09-08T05:48:26.269Z,15.67
2018-09-08T05:50:54.932Z,25.60
2018-09-08T05:53:23.676Z,12.50
2018-09-08T05:55:52.319Z,13.23
2018-09-08T05:58:20.998Z,20.07
2018-09-08T06:00:49.731Z,14.40
2018-09-08T06:03:18.410Z,20.23
2018-09-08T06:05:47.131Z,11.03
2018-09-08T06:08:16.898Z,12.37
2018-09-08T06:10:45.681Z,11.53
2018-09-08T06:13:14.458Z,9.53
2018-09-08T06:15:43.311Z,10.00
2018-09-08T06:18:12.235Z,9.90
2018-09-08T06:20:41.014Z,8.17
2018-09-08T06:23:09.834Z,8.63
2018-09-08T06:25:38.598Z,9.67
2018-09-08T06:28:07.362Z,10.17
2018-09-08T06:30:36.071Z,22.47
2018-09-08T06:33:04.845Z,9.63
2018-09-08T06:35:33.663Z,9.20
2018-09-08T06:38:03.087Z,9.17
2018-09-08T06:40:31.887Z,8.90
2018-09-08T06:43:00.800Z,7.80
2018-09-08T06:45:29.610Z,7.23
2018-09-08T06:47:58.394Z,8.93
2018-09-08T06:50:27.089Z,8.03
2018-09-08T06:52:56.138Z,8.10
2018-09-08T06:55:24.833Z,7.67
2018-09-08T06:57:54.488Z,7.60
2018-09-08T07:00:23.886Z,7.63
2018-09-08T07:02:52.509Z,7.97
2018-09-08T07:05:21.168Z,7.10
2018-09-08T07:07:49.785Z,7.80
2018-09-08T07:10:18.487Z,7.43
2018-09-08T07:12:47.193Z,7.80
2018-09-08T07:15:15.918Z,7.87
2018-09-08T07:17:44.641Z,7.13
2018-09-08T07:20:13.353Z,7.00
2018-09-08T07:22:42.006Z,7.12
2018-09-08T07:25:11.016Z,7.72
2018-09-08T07:27:40.651Z,8.13
2018-09-08T07:30:09.455Z,8.35
2018-09-08T07:32:38.271Z,7.37
2018-09-08T07:35:07.688Z,7.65
2018-09-08T07:37:36.993Z,7.62
2018-09-08T07:40:06.426Z,7.15
2018-09-08T07:42:35.198Z,8.23
2018-09-08T07:45:04.016Z,7.40
2018-09-08T07:47:32.683Z,7.65
2018-09-08T07:50:01.337Z,7.92
2018-09-08T07:52:30.030Z,8.28
2018-09-08T07:54:58.718Z,8.00
2018-09-08T07:57:27.396Z,7.60
2018-09-08T07:59:56.741Z,8.20
2018-09-08T08:02:25.417Z,7.72
2018-09-08T08:04:54.315Z,7.60
2018-09-08T08:07:23.126Z,7.65
2018-09-08T08:09:51.881Z,7.47
2018-09-08T08:12:20.689Z,7.30
2018-09-08T08:14:50.381Z,7.47
2018-09-08T08:17:19.038Z,8.70
2018-09-08T08:19:47.667Z,8.53
2018-09-08T08:22:16.363Z,7.28
2018-09-08T08:24:45.136Z,7.70
2018-09-08T08:27:13.943Z,8.15
2018-09-08T08:29:42.813Z,6.97
2018-09-08T08:32:11.811Z,7.55
2018-09-08T08:34:41.211Z,6.83
2018-09-08T08:37:10.206Z,7.65
2018-09-08T08:39:39.736Z,7.60
2018-09-08T08:42:08.578Z,7.47
2018-09-08T08:44:37.377Z,6.70
2018-09-08T08:47:06.199Z,6.90
2018-09-08T08:49:35.057Z,7.20
2018-09-08T08:52:20.933Z,7.25
2018-09-08T08:54:54.346Z,7.60
2018-09-08T08:57:23.256Z,7.28
2018-09-08T08:59:53.943Z,7.45
2018-09-08T09:02:22.638Z,7.30
2018-09-08T09:04:51.417Z,7.28
2018-09-08T09:07:20.521Z,7.30
2018-09-08T09:09:49.875Z,7.22
2018-09-08T09:12:18.760Z,7.33
2018-09-08T09:14:47.646Z,6.80
2018-09-08T09:17:17.565Z,7.35
2018-09-08T09:20:03.081Z,7.15
2018-09-08T09:23:47.991Z,6.83
2018-09-08T09:26:16.864Z,6.17
2018-09-08T09:28:45.726Z,7.10
2018-09-08T09:31:14.747Z,6.75
2018-09-08T09:33:44.806Z,6.83
2018-09-08T09:36:13.678Z,6.80
2018-09-08T09:38:42.586Z,7.30
2018-09-08T09:41:11.439Z,6.72
2018-09-08T09:43:40.284Z,7.30
2018-09-08T09:46:09.157Z,6.62
2018-09-08T09:48:39.086Z,6.30
2018-09-08T09:51:07.911Z,6.75
2018-09-08T09:53:36.728Z,6.75
2018-09-08T09:56:05.486Z,6.20
2018-09-08T09:58:34.378Z,6.17
2018-09-08T10:01:08.716Z,6.30
2018-09-08T10:03:37.651Z,6.05
2018-09-08T10:06:06.516Z,5.80
2018-09-08T10:08:35.471Z,5.90
2018-09-08T10:11:04.218Z,6.17
2018-09-08T10:13:33.113Z,5.70
2018-09-08T10:16:01.841Z,5.35
2018-09-08T10:18:30.738Z,5.45
2018-09-08T10:21:00.058Z,5.30
2018-09-08T10:23:28.999Z,5.50
2018-09-08T10:25:57.823Z,5.45
2018-09-08T10:28:27.187Z,5.80
2018-09-08T10:30:56.519Z,5.83
2018-09-08T10:33:25.285Z,5.15
2018-09-08T10:35:54.496Z,4.78
2018-09-08T10:38:23.228Z,4.55
2018-09-08T10:40:52.032Z,4.58
2018-09-08T10:43:20.820Z,5.28
2018-09-08T10:45:50.316Z,4.53
2018-09-08T10:48:19.319Z,4.45
2018-09-08T10:50:48.161Z,4.62
2018-09-08T10:53:17.002Z,4.62
2018-09-08T10:55:45.733Z,4.50
2018-09-08T10:58:14.416Z,4.35
2018-09-08T11:00:43.218Z,4.53
2018-09-08T11:03:12.128Z,4.60
2018-09-08T11:05:40.881Z,4.65
2018-09-08T11:08:09.726Z,4.58
2018-09-08T11:10:38.503Z,4.47
2018-09-08T11:13:07.434Z,4.80
2018-09-08T11:15:36.609Z,4.70
2018-09-08T11:18:05.505Z,4.87
2018-09-08T11:20:34.389Z,4.50
2018-09-08T11:23:03.282Z,4.12
2018-09-08T11:25:32.387Z,4.50
2018-09-08T11:28:01.184Z,4.53
2018-09-08T11:30:30.124Z,4.33
2018-09-08T11:32:58.942Z,4.22
2018-09-08T11:35:28.321Z,4.20
2018-09-08T11:37:57.148Z,4.55
2018-09-08T11:40:25.954Z,4.40
2018-09-08T11:42:54.744Z,4.12
2018-09-08T11:45:23.599Z,4.10
2018-09-08T11:47:52.391Z,4.03
2018-09-08T11:50:21.265Z,4.20
2018-09-08T11:52:50.930Z,4.33
2018-09-08T11:55:19.757Z,4.10
2018-09-08T11:57:49.012Z,4.17
2018-09-08T12:00:17.824Z,4.15
2018-09-08T12:02:46.961Z,4.70
2018-09-08T12:05:15.640Z,3.77
2018-09-08T12:07:44.327Z,3.77
2018-09-08T12:10:13.150Z,3.77
2018-09-08T12:12:41.905Z,4.03
2018-09-08T12:15:10.779Z,4.00
2018-09-08T12:17:39.596Z,3.80
2018-09-08T12:20:08.403Z,3.60
2018-09-08T12:22:37.164Z,4.53
2018-09-08T12:25:05.933Z,3.45
2018-09-08T12:27:34.590Z,4.12
2018-09-08T12:30:04.592Z,3.80
2018-09-08T12:32:33.750Z,3.60
2018-09-08T12:35:02.642Z,3.65
2018-09-08T12:37:31.647Z,3.47
2018-09-08T12:40:00.854Z,3.70
2018-09-08T12:42:29.739Z,3.92
2018-09-08T12:44:58.611Z,4.08
2018-09-08T12:47:27.476Z,3.80
2018-09-08T12:49:56.335Z,4.17
2018-09-08T12:52:25.226Z,3.70
2018-09-08T12:54:54.027Z,3.47
2018-09-08T12:57:22.798Z,3.52
2018-09-08T12:59:51.501Z,3.75
2018-09-08T13:02:20.262Z,3.98
2018-09-08T13:04:49.001Z,4.12
2018-09-08T13:07:18.094Z,4.00
2018-09-08T13:09:47.516Z,3.95
2018-09-08T13:12:16.378Z,4.22
2018-09-08T13:14:45.141Z,3.70
2018-09-08T13:17:14.735Z,4.15
2018-09-08T13:19:43.470Z,3.95
2018-09-08T13:22:12.214Z,3.98
2018-09-08T13:24:41.053Z,4.12
2018-09-08T13:27:09.939Z,4.20
2018-09-08T13:29:38.781Z,4.50
2018-09-08T13:32:08.737Z,4.10
2018-09-08T13:34:37.593Z,4.15
2018-09-08T13:37:06.404Z,3.98
2018-09-08T13:39:35.373Z,3.95
2018-09-08T13:42:04.115Z,4.47
2018-09-08T13:44:33.036Z,3.87
2018-09-08T13:47:02.060Z,4.42
2018-09-08T13:49:30.846Z,4.03
2018-09-08T13:51:59.871Z,3.87
2018-09-08T13:54:29.219Z,3.60
2018-09-08T13:56:58.593Z,3.75
2018-09-08T13:59:27.384Z,4.10
2018-09-08T14:01:56.534Z,4.03
2018-09-08T14:04:25.359Z,4.10
2018-09-08T14:06:54.108Z,3.92
2018-09-08T14:09:23.596Z,3.90
2018-09-08T14:11:52.486Z,3.50
2018-09-08T14:14:21.248Z,4.22
2018-09-08T14:16:50.106Z,3.70
2018-09-08T14:19:19.393Z,3.65
2018-09-08T14:21:48.863Z,3.90
2018-09-08T14:24:18.379Z,3.60
2018-09-08T14:26:47.180Z,3.60
2018-09-08T14:29:16.071Z,4.05
2018-09-08T14:31:44.891Z,3.58
2018-09-08T14:34:13.746Z,4.20
2018-09-08T14:36:42.605Z,3.72
2018-09-08T14:39:11.403Z,4.00
2018-09-08T14:41:41.293Z,4.05
2018-09-08T14:44:10.170Z,3.65
2018-09-08T14:46:39.368Z,3.92
2018-09-08T14:49:08.265Z,3.47
2018-09-08T14:51:37.143Z,3.52
2018-09-08T14:54:06.101Z,3.80
2018-09-08T14:56:34.974Z,3.90
2018-09-08T14:59:03.896Z,3.77
2018-09-08T15:01:32.744Z,3.83
2018-09-08T15:04:01.551Z,3.83
2018-09-08T15:06:30.363Z,3.58
2018-09-08T15:08:59.063Z,3.40
2018-09-08T15:11:27.771Z,3.60
2018-09-08T15:13:56.513Z,3.60
2018-09-08T15:16:25.183Z,3.40
2018-09-08T15:18:53.858Z,3.58
2018-09-08T15:21:22.560Z,3.70
2018-09-08T15:23:51.279Z,3.60
2018-09-08T15:26:20.082Z,4.15
2018-09-08T15:28:48.864Z,3.92
2018-09-08T15:31:17.698Z,3.90
2018-09-08T15:33:47.220Z,3.72
2018-09-08T15:36:16.379Z,3.92
2018-09-08T15:38:45.419Z,4.25
2018-09-08T15:41:14.516Z,4.25
2018-09-08T15:43:43.261Z,4.03
2018-09-08T15:46:12.044Z,3.80
2018-09-08T15:48:41.533Z,3.90
2018-09-08T15:51:10.377Z,4.05
2018-09-08T15:53:39.206Z,4.03
2018-09-08T15:56:08.081Z,3.52
2018-09-08T15:58:37.007Z,3.92
2018-09-08T16:01:05.780Z,4.00
2018-09-08T16:03:34.505Z,3.80
2018-09-08T16:06:03.226Z,4.10
2018-09-08T16:08:31.973Z,4.25
2018-09-08T16:11:00.791Z,4.15
2018-09-08T16:13:29.562Z,3.95
2018-09-08T16:15:58.454Z,4.25
2018-09-08T16:18:27.263Z,3.77
2018-09-08T16:20:56.024Z,4.35
2018-09-08T16:23:24.718Z,4.30
2018-09-08T16:25:53.413Z,4.03
2018-09-08T16:28:22.119Z,4.30
2018-09-08T16:30:50.826Z,4.37
2018-09-08T16:33:19.567Z,3.85
2018-09-08T16:35:48.244Z,4.30
2018-09-08T16:38:16.923Z,4.17
2018-09-08T16:40:45.644Z,4.10
2018-09-08T16:43:14.404Z,4.70
2018-09-08T16:45:43.178Z,4.00
2018-09-08T16:48:11.966Z,4.35
2018-09-08T16:50:40.737Z,4.72
2018-09-08T16:53:09.382Z,4.70
2018-09-08T16:55:38.066Z,4.37
2018-09-08T16:58:06.861Z,5.00
2018-09-08T17:00:35.545Z,4.58
2018-09-08T17:03:04.266Z,4.87
2018-09-08T17:05:33.018Z,4.87
2018-09-08T17:08:02.085Z,4.53
2018-09-08T17:10:30.846Z,4.60
2018-09-08T17:12:59.631Z,4.50
2018-09-08T17:15:28.524Z,4.67
2018-09-08T17:17:57.266Z,4.55
2018-09-08T17:20:26.075Z,5.05
2018-09-08T17:22:54.883Z,4.85
2018-09-08T17:25:24.264Z,4.90
2018-09-08T17:27:53.081Z,4.60
2018-09-08T17:30:22.491Z,4.70
2018-09-08T17:32:51.297Z,4.47
2018-09-08T17:35:20.134Z,4.90
2018-09-08T17:37:48.958Z,4.45
2018-09-08T17:40:17.787Z,4.70
2018-09-08T17:42:46.598Z,4.80
2018-09-08T17:45:15.431Z,5.17
2018-09-08T17:47:44.230Z,5.10
2018-09-08T17:50:13.911Z,4.90
2018-09-08T17:52:42.607Z,5.07
2018-09-08T17:55:11.657Z,5.17
2018-09-08T17:57:40.589Z,5.78
2018-09-08T18:00:09.434Z,6.37
2018-09-08T18:02:38.304Z,8.10
2018-09-08T18:05:07.181Z,7.20
2018-09-08T18:07:36.927Z,7.10
2018-09-08T18:10:06.737Z,6.30
2018-09-08T18:12:35.896Z,7.17
2018-09-08T18:15:05.631Z,6.62
2018-09-08T18:17:34.440Z,6.22
2018-09-08T18:20:03.327Z,6.20
2018-09-08T18:22:32.322Z,7.27
2018-09-08T18:25:01.169Z,6.00
2018-09-08T18:27:29.894Z,5.80
2018-09-08T18:29:59.054Z,5.17
2018-09-08T18:32:28.774Z,5.00
2018-09-08T18:34:57.512Z,6.80
2018-09-08T18:37:26.282Z,6.97
2018-09-08T18:39:55.671Z,7.10
2018-09-08T18:42:24.462Z,6.87
2018-09-08T18:44:53.291Z,6.40
2018-09-08T18:47:22.003Z,6.30
2018-09-08T18:49:50.639Z,5.90
2018-09-08T18:52:19.325Z,6.17
2018-09-08T18:54:47.936Z,6.17
2018-09-08T18:57:16.770Z,5.90
2018-09-08T18:59:45.444Z,6.90
2018-09-08T19:02:14.252Z,6.33
2018-09-08T19:04:42.975Z,6.53
2018-09-08T19:07:11.619Z,6.27
2018-09-08T19:09:40.616Z,6.53
2018-09-08T19:12:09.331Z,6.47
2018-09-08T19:14:43.439Z,7.00
2018-09-08T19:17:12.204Z,7.10
2018-09-08T19:19:41.064Z,7.00
2018-09-08T19:22:09.868Z,7.27
2018-09-08T19:24:43.177Z,7.30
2018-09-08T19:27:12.764Z,7.00
2018-09-08T19:29:47.719Z,6.20
2018-09-08T19:32:17.333Z,6.57
2018-09-08T19:34:50.819Z,5.80
2018-09-08T19:37:19.841Z,6.67
2018-09-08T19:39:49.107Z,6.47
2018-09-08T19:42:17.852Z,6.00
2018-09-08T19:44:47.623Z,7.03
2018-09-08T19:47:21.914Z,6.57
2018-09-08T19:49:50.667Z,6.97
2018-09-08T19:52:24.967Z,7.87
2018-09-08T19:54:53.710Z,7.67
2018-09-08T19:57:27.824Z,7.27
2018-09-08T19:59:57.903Z,6.93
2018-09-08T20:02:28.227Z,7.00
2018-09-08T20:04:57.012Z,7.00
2018-09-08T20:07:26.167Z,7.40
2018-09-08T20:09:54.992Z,6.93
2018-09-08T20:12:23.832Z,7.00
2018-09-08T20:14:52.989Z,6.53
2018-09-08T20:17:21.728Z,8.40
2018-09-08T20:19:50.534Z,8.27
2018-09-08T20:22:19.153Z,8.53
2018-09-08T20:24:48.876Z,8.33
2018-09-08T20:27:17.895Z,8.13
2018-09-08T20:29:47.446Z,7.83
2018-09-08T20:32:16.062Z,7.47
2018-09-08T20:34:44.761Z,7.50
2018-09-08T20:37:13.417Z,7.70
2018-09-08T20:39:42.075Z,8.27
2018-09-08T20:42:10.791Z,7.93
2018-09-08T20:44:39.486Z,7.27
2018-09-08T20:47:09.085Z,7.40
2018-09-08T20:49:37.811Z,7.80
2018-09-08T20:52:07.608Z,7.73
2018-09-08T20:54:36.406Z,7.47
2018-09-08T20:57:05.915Z,7.63
2018-09-08T20:59:34.711Z,7.80
2018-09-08T21:02:03.536Z,7.77
2018-09-08T21:04:32.383Z,7.57
2018-09-08T21:07:01.138Z,7.60
2018-09-08T21:09:30.004Z,7.77
2018-09-08T21:11:59.455Z,7.43
2018-09-08T21:14:28.166Z,7.20
2018-09-08T21:16:56.830Z,7.73
2018-09-08T21:19:25.639Z,8.13
2018-09-08T21:21:54.351Z,7.57
2018-09-08T21:24:23.089Z,7.43
2018-09-08T21:26:51.741Z,7.43
2018-09-08T21:29:20.813Z,7.73
2018-09-08T21:31:49.689Z,7.83
2018-09-08T21:34:18.613Z,8.57
2018-09-08T21:36:47.444Z,8.47
2018-09-08T21:39:16.356Z,8.17
2018-09-08T21:41:45.192Z,9.03
2018-09-08T21:44:13.989Z,8.97
2018-09-08T21:46:42.783Z,9.03
2018-09-08T21:49:11.551Z,8.83
2018-09-08T21:51:40.606Z,9.30
2018-09-08T21:54:09.348Z,9.47
2018-09-08T21:56:38.052Z,8.60
2018-09-08T21:59:06.731Z,8.67
2018-09-08T22:01:35.540Z,8.83
2018-09-08T22:04:04.501Z,8.90
2018-09-08T22:06:33.489Z,9.03
2018-09-08T22:09:03.468Z,8.47
2018-09-08T22:11:32.268Z,7.17
2018-09-08T22:14:01.123Z,8.23
2018-09-08T22:16:29.976Z,7.93
2018-09-08T22:18:58.731Z,8.20
2018-09-08T22:21:27.501Z,7.70
2018-09-08T22:23:56.355Z,7.90
2018-09-08T22:26:25.313Z,8.70
2018-09-08T22:28:54.174Z,9.30
2018-09-08T22:31:22.946Z,10.33
2018-09-08T22:33:51.681Z,9.70
2018-09-08T22:36:20.434Z,9.97
2018-09-08T22:38:49.219Z,9.37
2018-09-08T22:41:18.141Z,10.00
2018-09-08T22:43:46.939Z,9.27
2018-09-08T22:46:15.793Z,9.07
2018-09-08T22:48:44.611Z,8.77
2018-09-08T22:51:13.571Z,9.50
2018-09-08T22:53:42.356Z,8.93
2018-09-08T22:56:11.227Z,9.13
2018-09-08T22:58:40.116Z,9.67
2018-09-08T23:01:08.858Z,8.77
2018-09-08T23:03:37.673Z,8.57
2018-09-08T23:06:06.578Z,8.97
2018-09-08T23:08:36.044Z,8.70
2018-09-08T23:11:04.956Z,9.60
2018-09-08T23:13:33.831Z,9.17
2018-09-08T23:16:02.724Z,9.33
2018-09-08T23:18:31.633Z,9.70
2018-09-08T23:21:00.532Z,9.80
2018-09-08T23:23:29.398Z,10.17
2018-09-08T23:25:58.229Z,10.60
2018-09-08T23:28:27.597Z,10.27
2018-09-08T23:30:56.488Z,9.37
2018-09-08T23:33:25.289Z,9.60
2018-09-08T23:35:54.103Z,10.20
2018-09-08T23:38:22.978Z,10.83
2018-09-08T23:40:51.859Z,10.20
2018-09-08T23:43:20.766Z,10.03
2018-09-08T23:45:49.703Z,10.10
2018-09-08T23:48:18.755Z,10.03
2018-09-08T23:50:47.691Z,9.57
2018-09-08T23:53:16.598Z,9.17
2018-09-08T23:55:45.476Z,9.63
2018-09-08T23:58:14.304Z,8.90
